Adolfo Suárez Madrid-Barajas Airport

LEMD · Madrid, Madrid, Spain

METAR history LEMD · Adolfo Suárez Madrid-Barajas Airport

Below you see METARs of the last few days. Select a year to browse through older METARs, from the year 2007 onwards.

February 4, 2023

Time Code Weather Temp. Visibility Ceiling Wind METAR/SPECI
17:00
V
19 °C 10 km+ - Var 000° 0 kt METAR LEMD 041600Z 00000KT CAVOK 19/M04 Q1028 NOSIG
16:30
V
19 °C 10 km+ - Var 000° 0 kt METAR LEMD 041530Z 00000KT CAVOK 19/M05 Q1029 NOSIG
16:00
V
18 °C 10 km+ - Var 000° 0 kt METAR LEMD 041500Z 00000KT CAVOK 18/M04 Q1029 NOSIG
15:30
V
18 °C 10 km+ - Var 000° 0 kt METAR LEMD 041430Z 00000KT CAVOK 18/M03 Q1029 NOSIG
15:00
V
17 °C 10 km+ - 160° 160° 2 kt METAR LEMD 041400Z 16002KT CAVOK 17/M04 Q1029 NOSIG
14:30
V
16 °C 10 km+ - Var Var 2 kt METAR LEMD 041330Z VRB02KT CAVOK 16/M03 Q1030 NOSIG
14:00
V
15 °C 10 km+ - Var 000° 0 kt METAR LEMD 041300Z 00000KT CAVOK 15/M05 Q1030 NOSIG
13:30
V
13 °C 10 km+ - 320° 320° 1 kt METAR LEMD 041230Z 32001KT CAVOK 13/M06 Q1031 NOSIG
13:00
V
12 °C 10 km+ - Var Var 1 kt METAR LEMD 041200Z VRB01KT CAVOK 12/M05 Q1031 NOSIG
12:30
V
10 °C 10 km+ - Var Var 1 kt METAR LEMD 041130Z VRB01KT CAVOK 10/M03 Q1032 NOSIG
12:00
V
9 °C 10 km+ - 210° 210° 1 kt METAR LEMD 041100Z 21001KT CAVOK 09/M03 Q1032 NOSIG
11:30
V
6 °C 10 km+ - Var Var 2 kt METAR LEMD 041030Z VRB02KT CAVOK 06/M03 Q1032 NOSIG
11:00
V
4 °C 10 km+ - Var Var 2 kt METAR LEMD 041000Z VRB02KT CAVOK 04/M03 Q1032 NOSIG
10:30
V
2 °C 10 km+ - Var Var 2 kt METAR LEMD 040930Z VRB02KT CAVOK 02/M04 Q1032 NOSIG
10:00
V
0 °C 10 km+ - Var Var 2 kt METAR LEMD 040900Z VRB02KT CAVOK 00/M05 Q1032 NOSIG
09:30
V
-1 °C 10 km+ - Var Var 1 kt METAR LEMD 040830Z VRB01KT CAVOK M01/M05 Q1032 NOSIG
09:00
V
-3 °C 10 km+ - Var Var 2 kt METAR LEMD 040800Z VRB02KT CAVOK M03/M06 Q1032 NOSIG
08:30
V
-3 °C 10 km+ - 360° 360° 3 kt METAR LEMD 040730Z 36003KT 320V020 CAVOK M03/M06 Q1032 NOSIG
08:00
V
-3 °C 10 km+ - 360° 360° 2 kt METAR LEMD 040700Z 36002KT CAVOK M03/M06 Q1031 NOSIG
07:30
V
-3 °C 10 km+ - Var Var 2 kt METAR LEMD 040630Z VRB02KT CAVOK M03/M06 Q1031 NOSIG
07:00
V
-3 °C 10 km+ - 360° 360° 3 kt METAR LEMD 040600Z 36003KT CAVOK M03/M06 Q1031 NOSIG
06:30
V
-3 °C 10 km+ - 010° 010° 3 kt METAR LEMD 040530Z 01003KT CAVOK M03/M06 Q1031 NOSIG
06:00
V
-3 °C 10 km+ - 340° 340° 2 kt METAR LEMD 040500Z 34002KT CAVOK M03/M06 Q1031 NOSIG
05:30
V
-2 °C 10 km+ - 360° 360° 2 kt METAR LEMD 040430Z 36002KT CAVOK M02/M05 Q1032 NOSIG
05:00
V
-3 °C 10 km+ - 360° 360° 1 kt METAR LEMD 040400Z 36001KT CAVOK M03/M05 Q1032 NOSIG
04:30
V
-2 °C 10 km+ - 350° 350° 3 kt METAR LEMD 040330Z 35003KT CAVOK M02/M05 Q1032 NOSIG
04:00
V
-2 °C 10 km+ - Var 000° 0 kt METAR LEMD 040300Z 00000KT CAVOK M02/M05 Q1032 NOSIG
03:30
V
-2 °C 10 km+ - 360° 360° 2 kt METAR LEMD 040230Z 36002KT CAVOK M02/M05 Q1032 NOSIG
03:00
V
-1 °C 10 km+ - 360° 360° 2 kt METAR LEMD 040200Z 36002KT CAVOK M01/M04 Q1032 NOSIG
02:30
V
0 °C 10 km+ - 310° 310° 1 kt METAR LEMD 040130Z 31001KT CAVOK M00/M04 Q1032 NOSIG
02:00
V
1 °C 10 km+ - 020° 020° 3 kt METAR LEMD 040100Z 02003KT 350V060 CAVOK 01/M04 Q1032 NOSIG
01:30
V
1 °C 10 km+ - 340° 340° 3 kt METAR LEMD 040030Z 34003KT CAVOK 01/M04 Q1032 NOSIG
01:00
V
2 °C 10 km+ - 360° 360° 3 kt METAR LEMD 040000Z 36003KT CAVOK 02/M04 Q1032 NOSIG
00:30
V
2 °C 10 km+ - 350° 350° 2 kt METAR LEMD 032330Z 35002KT CAVOK 02/M03 Q1032 NOSIG
00:00
V
3 °C 10 km+ - 350° 350° 3 kt METAR LEMD 032300Z 35003KT CAVOK 03/M03 Q1032 NOSIG

February 3, 2023

Time Code Weather Temp. Visibility Ceiling Wind METAR/SPECI
23:30
V
4 °C 10 km+ - 360° 360° 5 kt METAR LEMD 032230Z 36005KT CAVOK 04/M03 Q1032 NOSIG
23:00
V
3 °C 10 km+ - Var Var 2 kt METAR LEMD 032200Z VRB02KT CAVOK 03/M02 Q1032 NOSIG
22:30
V
4 °C 10 km+ - 340° 340° 4 kt METAR LEMD 032130Z 34004KT CAVOK 04/M02 Q1032 NOSIG
22:00
V
5 °C 10 km+ - 360° 360° 4 kt METAR LEMD 032100Z 36004KT CAVOK 05/M02 Q1032 NOSIG
21:30
V
5 °C 10 km+ - 320° 320° 6 kt METAR LEMD 032030Z 32006KT CAVOK 05/M02 Q1031 NOSIG
21:00
V
7 °C 10 km+ - 350° 350° 4 kt METAR LEMD 032000Z 35004KT CAVOK 07/M03 Q1031 NOSIG
20:30
V
8 °C 10 km+ - 340° 340° 3 kt METAR LEMD 031930Z 34003KT CAVOK 08/M03 Q1031 NOSIG
20:00
V
9 °C 10 km+ - 360° 360° 2 kt METAR LEMD 031900Z 36002KT CAVOK 09/M03 Q1031 NOSIG
19:30
V
10 °C 10 km+ - Var 000° 0 kt METAR LEMD 031830Z 00000KT CAVOK 10/M03 Q1031 NOSIG
19:00
V
12 °C 10 km+ - Var Var 1 kt METAR LEMD 031800Z VRB01KT CAVOK 12/M04 Q1031 NOSIG
18:30
V
15 °C 10 km+ - Var Var 2 kt METAR LEMD 031730Z VRB02KT CAVOK 15/M05 Q1030 NOSIG
18:00
V
17 °C 10 km+ - 230° 230° 1 kt METAR LEMD 031700Z 23001KT CAVOK 17/M03 Q1030 NOSIG
17:30
V
17 °C 10 km+ - Var Var 2 kt METAR LEMD 031630Z VRB02KT CAVOK 17/M03 Q1030 NOSIG
17:00
V
17 °C 10 km+ - Var Var 2 kt METAR LEMD 031600Z VRB02KT CAVOK 17/M03 Q1030 NOSIG
16:30
V
16 °C 10 km+ - 200° 200° 2 kt METAR LEMD 031530Z 20002KT CAVOK 16/M03 Q1030 NOSIG
16:00
V
16 °C 10 km+ - Var Var 1 kt METAR LEMD 031500Z VRB01KT CAVOK 16/M04 Q1030 NOSIG
15:30
V
16 °C 10 km+ - 310° 310° 1 kt METAR LEMD 031430Z 31001KT CAVOK 16/M04 Q1030 NOSIG
15:00
V
15 °C 10 km+ - Var Var 2 kt METAR LEMD 031400Z VRB02KT CAVOK 15/M03 Q1030 NOSIG
14:30
V
14 °C 10 km+ - 330° 330° 3 kt METAR LEMD 031330Z 33003KT 250V020 CAVOK 14/M03 Q1031 NOSIG
14:00
V
13 °C 10 km+ - Var Var 2 kt METAR LEMD 031300Z VRB02KT CAVOK 13/M03 Q1031 NOSIG
13:30
V
12 °C 10 km+ - 190° 190° 3 kt METAR LEMD 031230Z 19003KT 140V300 CAVOK 12/M01 Q1032 NOSIG
13:00
V
11 °C 10 km+ - 330° 330° 1 kt METAR LEMD 031200Z 33001KT CAVOK 11/M00 Q1032 NOSIG
12:30
V
9 °C 10 km+ - Var Var 2 kt METAR LEMD 031130Z VRB02KT CAVOK 09/M01 Q1033 NOSIG
12:00
V
9 °C 10 km+ - 340° 340° 1 kt METAR LEMD 031100Z 34001KT CAVOK 09/M00 Q1033 NOSIG
11:30
V
6 °C 10 km+ - Var 000° 0 kt METAR LEMD 031030Z 00000KT CAVOK 06/M02 Q1033 NOSIG
11:00
V
4 °C 10 km+ - 250° 250° 1 kt METAR LEMD 031000Z 25001KT CAVOK 04/M02 Q1033 NOSIG
10:30
V
2 °C 10 km+ - Var Var 2 kt METAR LEMD 030930Z VRB02KT CAVOK 02/M03 Q1033 NOSIG
10:00
V
0 °C 10 km+ - 350° 350° 3 kt METAR LEMD 030900Z 35003KT 330V030 CAVOK 00/M03 Q1032 NOSIG
09:30
V
-1 °C 10 km+ - 350° 350° 3 kt METAR LEMD 030830Z 35003KT CAVOK M01/M04 Q1032 NOSIG
09:00
V
-2 °C 10 km+ - 010° 010° 3 kt METAR LEMD 030800Z 01003KT CAVOK M02/M04 Q1032 NOSIG
08:30
V
-3 °C 10 km+ - Var Var 1 kt METAR LEMD 030730Z VRB01KT CAVOK M03/M04 Q1032 NOSIG
08:00
V
-3 °C 10 km+ - 330° 330° 2 kt METAR LEMD 030700Z 33002KT CAVOK M03/M05 Q1031 NOSIG
07:30
V
-3 °C 10 km+ - Var Var 2 kt METAR LEMD 030630Z VRB02KT CAVOK M03/M05 Q1031 NOSIG
07:00
V
-2 °C 10 km+ - 010° 010° 3 kt METAR LEMD 030600Z 01003KT CAVOK M02/M04 Q1031 NOSIG
06:30
V
-2 °C 10 km+ - 340° 340° 2 kt METAR LEMD 030530Z 34002KT CAVOK M02/M03 Q1031 NOSIG
06:00
V
-2 °C 10 km+ - 010° 010° 2 kt METAR LEMD 030500Z 01002KT CAVOK M02/M04 Q1031 NOSIG
05:30
V
-2 °C 10 km+ - Var Var 2 kt METAR LEMD 030430Z VRB02KT CAVOK M02/M04 Q1030 NOSIG
05:00
V
-2 °C 10 km+ - 330° 330° 3 kt METAR LEMD 030400Z 33003KT 270V360 CAVOK M02/M03 Q1030 NOSIG
04:30
V
-2 °C 10 km+ - Var Var 2 kt METAR LEMD 030330Z VRB02KT CAVOK M02/M04 Q1030 NOSIG
04:00
V
-2 °C 10 km+ - 350° 350° 2 kt METAR LEMD 030300Z 35002KT CAVOK M02/M03 Q1030 NOSIG
03:30
V
-1 °C 10 km+ - 330° 330° 3 kt METAR LEMD 030230Z 33003KT CAVOK M01/M04 Q1031 NOSIG
03:00
V
-1 °C 10 km+ - 010° 010° 3 kt METAR LEMD 030200Z 01003KT CAVOK M01/M03 Q1031 NOSIG
02:30
V
-1 °C 10 km+ - 010° 010° 2 kt METAR LEMD 030130Z 01002KT CAVOK M01/M03 Q1031 NOSIG
02:00
V
0 °C 10 km+ - 340° 340° 3 kt METAR LEMD 030100Z 34003KT CAVOK M00/M04 Q1031 NOSIG
01:30
V
1 °C 10 km+ - 350° 350° 3 kt METAR LEMD 030030Z 35003KT CAVOK 01/M01 Q1031 NOSIG
01:00
V
1 °C 10 km+ - 350° 350° 3 kt METAR LEMD 030000Z 35003KT CAVOK 01/M02 Q1031 NOSIG
00:30
V
1 °C 10 km+ - 360° 360° 3 kt METAR LEMD 022330Z 36003KT CAVOK 01/M01 Q1031 NOSIG
00:00
V
1 °C 10 km+ - 360° 360° 3 kt METAR LEMD 022300Z 36003KT CAVOK 01/M02 Q1031 NOSIG

February 2, 2023

Time Code Weather Temp. Visibility Ceiling Wind METAR/SPECI
23:30
V
2 °C 10 km+ - Var Var 1 kt METAR LEMD 022230Z VRB01KT CAVOK 02/M01 Q1031 NOSIG
23:00
V
3 °C 10 km+ - 350° 350° 4 kt METAR LEMD 022200Z 35004KT CAVOK 03/M01 Q1031 NOSIG
22:30
V
3 °C 10 km+ - 350° 350° 4 kt METAR LEMD 022130Z 35004KT CAVOK 03/M01 Q1030 NOSIG
22:00
V
4 °C 10 km+ - 350° 350° 3 kt METAR LEMD 022100Z 35003KT CAVOK 04/M01 Q1030 NOSIG
21:30
V
4 °C 10 km+ - 340° 340° 4 kt METAR LEMD 022030Z 34004KT 310V010 CAVOK 04/M01 Q1030 NOSIG
21:00
V
5 °C 10 km+ - 340° 340° 2 kt METAR LEMD 022000Z 34002KT CAVOK 05/M01 Q1030 NOSIG
20:30
V
6 °C 10 km+ - Var Var 2 kt METAR LEMD 021930Z VRB02KT CAVOK 06/M01 Q1030 NOSIG
20:00
V
7 °C 10 km+ - 330° 330° 1 kt METAR LEMD 021900Z 33001KT CAVOK 07/M01 Q1030 NOSIG
19:30
V
8 °C 10 km+ - Var 000° 0 kt METAR LEMD 021830Z 00000KT CAVOK 08/M01 Q1030 NOSIG
19:00
V
9 °C 10 km+ - Var Var 2 kt METAR LEMD 021800Z VRB02KT CAVOK 09/M01 Q1029 NOSIG
18:30
V
11 °C 10 km+ - 120° 120° 2 kt METAR LEMD 021730Z 12002KT CAVOK 11/M00 Q1029 NOSIG
18:00
V
13 °C 10 km+ - 130° 130° 1 kt METAR LEMD 021700Z 13001KT CAVOK 13/M00 Q1029 NOSIG
17:30
V
14 °C 10 km+ - Var Var 1 kt METAR LEMD 021630Z VRB01KT CAVOK 14/M01 Q1028 NOSIG
17:00
V
15 °C 10 km+ - 180° 180° 1 kt METAR LEMD 021600Z 18001KT CAVOK 15/M01 Q1028 NOSIG
16:30
V
14 °C 10 km+ - 150° 150° 2 kt METAR LEMD 021530Z 15002KT CAVOK 14/M01 Q1028 NOSIG
16:00
V
14 °C 10 km+ - 160° 160° 1 kt METAR LEMD 021500Z 16001KT CAVOK 14/M01 Q1028 NOSIG
15:30
V
13 °C 10 km+ - Var Var 1 kt METAR LEMD 021430Z VRB01KT CAVOK 13/M01 Q1028 NOSIG
15:00
V
14 °C 10 km+ - 220° 220° 1 kt METAR LEMD 021400Z 22001KT CAVOK 14/M00 Q1028 NOSIG
14:30
V
13 °C 10 km+ - Var Var 2 kt METAR LEMD 021330Z VRB02KT CAVOK 13/M01 Q1029 NOSIG
14:00
V
12 °C 10 km+ - 240° 240° 1 kt METAR LEMD 021300Z 24001KT CAVOK 12/M01 Q1029 NOSIG
13:30
V
11 °C 10 km+ - 020° 020° 1 kt METAR LEMD 021230Z 02001KT CAVOK 11/M01 Q1030 NOSIG
13:00
V
10 °C 10 km+ - 290° 290° 2 kt METAR LEMD 021200Z 29002KT CAVOK 10/M01 Q1030 NOSIG
12:30
V
8 °C 10 km+ - 340° 340° 3 kt METAR LEMD 021130Z 34003KT 290V040 CAVOK 08/00 Q1031 NOSIG
12:00
V
7 °C 10 km+ - Var Var 2 kt METAR LEMD 021100Z VRB02KT CAVOK 07/00 Q1031 NOSIG
11:30
V
6 °C 10 km+ - 330° 330° 2 kt METAR LEMD 021030Z 33002KT CAVOK 06/M00 Q1031 NOSIG
11:00
V
4 °C 10 km+ - Var Var 2 kt METAR LEMD 021000Z VRB02KT CAVOK 04/M01 Q1030 NOSIG
10:30
V
2 °C 10 km+ - 330° 330° 3 kt METAR LEMD 020930Z 33003KT 290V360 CAVOK 02/M02 Q1030 NOSIG
10:00
V
1 °C 10 km+ - Var Var 2 kt METAR LEMD 020900Z VRB02KT CAVOK 01/M02 Q1030 NOSIG
09:30
V
-1 °C 10 km+ - 360° 360° 1 kt METAR LEMD 020830Z 36001KT CAVOK M01/M03 Q1030 NOSIG
09:00
V
-2 °C 10 km+ - 340° 340° 3 kt METAR LEMD 020800Z 34003KT CAVOK M02/M04 Q1029 NOSIG

We and third parties follow your internet behavior on our website with cookies. If you continue, we assume you agree with our cookie policy.